Meath Environmental Platform

Observations for Trim Market St

Time AQI Temp °C Hum % Pres Pa CO μg/m³ H₂S μg/m³ NO μg/m³ NO₂ μg/m³ O₃ μg/m³ SO₂ μg/m³ PM1 μg/m³ PM2.5 μg/m³ PM10 μg/m³
Tuesday 18 August 2026
23:24 2 15.3 84 2,147,483,647 0.39 0 2.35 10.06 55.23 0 2.14 3.8 6.99
23:23 2 15.3 84 2,147,483,647 0.33 0 2.34 7.6 46.51 0 2.85 3.8 6.99
23:22 2 15.3 84 2,147,483,647 0.28 0 2.34 7.1 45.48 0 3.56 3.8 7.53
23:21 2 15.3 84 2,147,483,647 0.27 0 2.38 7.15 48.92 0 2.14 3.33 6.44
23:20 2 15.3 84 2,147,483,647 0.27 0 2.37 7.79 49.27 0 1.43 2.87 7.53
23:18 2 15.3 84 2,147,483,647 0.28 0 2.32 8.65 52.58 0 1.43 2.87 5.9
23:17 2 15.3 84 2,147,483,647 0.25 0 2.3 8.84 48.51 0 2.14 2.87 6.99
23:16 2 15.3 84 2,147,483,647 0.26 0 2.3 7.47 46.64 0 2.14 2.88 6.44
23:14 2 15.3 84 2,147,483,647 0.3 0 2.3 7.14 41.88 0 2.85 3.81 7.53
23:11 2 15.3 84 2,147,483,647 0.38 0 2.31 7.18 48.58 0 1.43 2.88 5.89
23:07 2 15.4 84 2,147,483,647 0.29 0 2.31 7.9 44.93 0 0.71 2.41 5.35
23:04 2 15.4 84 2,147,483,647 0.45 0 2.31 9.48 51.25 0 0.71 2.88 6.44
23:00 2 15.4 84 2,147,483,647 0.26 0 2.3 7.34 43.78 0 2.14 4.29 8.08
22:57 2 15.4 84 2,147,483,647 0.28 0 2.3 9.31 50.48 0 1.43 3.35 6.44
22:54 2 15.4 84 2,147,483,647 0.29 0 2.29 7.62 48.61 0 2.14 4.29 7.53
22:53 2 15.4 83 2,147,483,647 0.3 0 2.28 9.13 53.07 0 2.14 2.89 6.98
22:52 2 15.4 83 2,147,483,647 0.28 0 2.28 8.14 49.2 0 2.14 3.36 6.44
22:51 2 15.4 83 2,147,483,647 0.34 0 2.28 7.98 44.56 0 2.14 2.89 5.89
22:50 2 15.4 83 2,147,483,647 0.41 0 2.28 6.84 42.29 0 2.14 3.82 8.63
22:49 2 15.5 83 2,147,483,647 0.57 0 2.27 8.45 47.56 0 2.14 3.82 6.98